Terminal Aerodrome Forecast
Issued by NWS Riverton, WY

Home | Current Version | Previous Version | Text Only | Print | Product List | Glossary On
Versions: 1 2 3 4 5 6 7 8 9 10 11 12
000
FTUS45 KRIW 022320
TAFRIW
TAF
KRIW 022320Z 0300/0324 05007KT P6SM FEW120 SCT200
     FM030300 32007KT P6SM FEW120 BKN200
     FM032100 10008KT P6SM VCSH SCT070 BKN100=

USA.gov is the U.S. government's official web portal to all federal, state and local government web resources and services.